createdAt,value
2023-04-03T17:17:51.620Z,19.6
2023-04-03T17:19:51.795Z,19.2
2023-04-03T17:21:55.911Z,19.2
2023-04-03T17:23:51.497Z,19.3
2023-04-03T17:25:51.554Z,19.1
2023-04-03T17:27:51.599Z,19.4
2023-04-03T17:29:51.486Z,19.3
2023-04-03T17:31:54.472Z,19.2
2023-04-03T17:33:51.507Z,19.3
2023-04-03T17:35:51.559Z,19.6
2023-04-03T17:37:51.817Z,19.5
2023-04-03T17:39:51.591Z,19.5
2023-04-03T17:41:51.575Z,19.7
2023-04-03T17:43:51.491Z,20.0
2023-04-03T17:45:51.605Z,20.1
2023-04-03T17:47:54.705Z,20.1
2023-04-03T17:49:51.506Z,20.0
2023-04-03T17:51:52.249Z,20.0
2023-04-03T17:53:52.090Z,20.1
2023-04-03T17:55:52.018Z,19.7
2023-04-03T17:57:57.390Z,19.6
2023-04-03T17:59:54.291Z,19.6
2023-04-03T18:01:51.589Z,19.8
2023-04-03T18:03:51.698Z,19.8
2023-04-03T18:05:52.819Z,19.7
2023-04-03T18:07:51.618Z,19.8
2023-04-03T18:09:51.632Z,20.1
2023-04-03T18:11:53.137Z,20.3
2023-04-03T18:13:51.665Z,20.3
2023-04-03T18:15:52.063Z,20.5
2023-04-03T18:17:51.652Z,21.0
2023-04-03T18:19:54.634Z,21.0
2023-04-03T18:21:51.696Z,20.8
2023-04-03T18:23:51.700Z,21.1
2023-04-03T18:25:51.709Z,21.3
2023-04-03T18:27:51.608Z,21.1
2023-04-03T18:29:51.700Z,21.0
2023-04-03T18:31:51.900Z,21.2
2023-04-03T18:33:51.636Z,21.0
2023-04-03T18:35:51.792Z,20.8
2023-04-03T18:37:52.610Z,20.9
2023-04-03T18:39:51.751Z,20.7
2023-04-03T18:41:51.746Z,20.5
2023-04-03T18:43:51.982Z,20.4
2023-04-03T18:45:51.692Z,20.2
2023-04-03T18:47:51.746Z,20.0
2023-04-03T18:49:53.733Z,20.0
2023-04-03T18:51:51.656Z,20.0
2023-04-03T18:53:51.636Z,20.0
2023-04-03T18:55:51.631Z,20.3
2023-04-03T18:57:51.779Z,20.4
2023-04-03T18:59:51.651Z,20.6
2023-04-03T19:01:51.588Z,20.6
2023-04-03T19:03:51.700Z,20.5
2023-04-03T19:05:51.797Z,20.5
2023-04-03T19:07:51.680Z,20.6
2023-04-03T19:09:51.766Z,20.3
2023-04-03T19:11:51.574Z,20.1
2023-04-03T19:14:10.478Z,20.3
2023-04-03T19:15:51.573Z,20.2
2023-04-03T19:17:51.659Z,19.7
2023-04-03T19:19:51.639Z,19.8
2023-04-03T19:21:51.635Z,19.8
2023-04-03T19:24:51.661Z,19.8
2023-04-03T19:26:51.686Z,20.0
2023-04-03T19:28:51.593Z,20.1
2023-04-03T19:30:54.540Z,20.5
2023-04-03T19:32:51.950Z,20.2
2023-04-03T19:34:51.582Z,20.5
2023-04-03T19:36:56.994Z,20.5
2023-04-03T19:38:51.597Z,20.4
2023-04-03T19:40:51.648Z,20.4
2023-04-03T19:42:51.812Z,20.3
2023-04-03T19:44:51.695Z,20.4
2023-04-03T19:46:53.408Z,20.4
2023-04-03T19:48:51.644Z,20.4
2023-04-03T19:50:51.698Z,20.5
2023-04-03T19:52:51.733Z,20.0
2023-04-03T19:54:53.001Z,20.0
2023-04-03T19:56:54.307Z,19.8
2023-04-03T19:58:51.708Z,19.6
2023-04-03T20:00:51.597Z,19.7
2023-04-03T20:02:54.760Z,19.5
2023-04-03T20:04:51.836Z,19.6
2023-04-03T20:06:51.612Z,19.7
2023-04-03T20:08:51.657Z,19.9
2023-04-03T20:10:51.616Z,20.0
2023-04-03T20:12:55.574Z,20.0
2023-04-03T20:14:51.866Z,19.9
2023-04-03T20:16:51.637Z,19.8
2023-04-03T20:18:52.495Z,20.0
2023-04-03T20:20:51.594Z,20.1
2023-04-03T20:22:51.620Z,20.3
2023-04-03T20:24:53.201Z,19.9
2023-04-03T20:26:51.617Z,19.8
2023-04-03T20:28:51.811Z,19.8
2023-04-03T20:30:51.695Z,19.7
2023-04-03T20:32:51.678Z,19.9
2023-04-03T20:35:03.035Z,19.8
2023-04-03T20:36:51.687Z,20.0
2023-04-03T20:38:51.718Z,20.0
2023-04-03T20:40:51.666Z,20.2
2023-04-03T20:42:51.665Z,20.2
2023-04-03T20:44:51.850Z,20.3
2023-04-03T20:46:54.041Z,20.5
2023-04-03T20:48:51.654Z,20.5
2023-04-03T20:50:51.649Z,20.6
2023-04-03T20:52:51.696Z,20.6
2023-04-03T20:54:54.640Z,20.6
2023-04-03T20:56:51.609Z,20.9
2023-04-03T20:58:52.765Z,21.0
2023-04-03T21:00:51.645Z,20.9
2023-04-03T21:02:54.285Z,21.1
2023-04-03T21:04:51.851Z,21.1
2023-04-03T21:06:51.671Z,21.1
2023-04-03T21:08:51.665Z,21.0
2023-04-03T21:10:51.597Z,20.9
2023-04-03T21:12:51.746Z,20.8
2023-04-03T21:14:51.638Z,20.9
2023-04-03T21:16:57.657Z,20.8
2023-04-03T21:18:51.625Z,20.9
2023-04-03T21:20:51.986Z,20.7
2023-04-03T21:22:51.689Z,20.5
2023-04-03T21:24:51.637Z,20.7
2023-04-03T21:26:51.817Z,20.8
2023-04-03T21:28:51.651Z,20.6
2023-04-03T21:30:51.802Z,20.4
2023-04-03T21:32:51.750Z,20.3
2023-04-03T21:34:51.615Z,20.5
2023-04-03T21:36:51.765Z,20.5
2023-04-03T21:38:51.630Z,20.6
2023-04-03T21:40:51.677Z,20.4
2023-04-03T21:42:51.682Z,20.6
2023-04-03T21:44:51.741Z,20.5
2023-04-03T21:46:52.989Z,20.4
2023-04-03T21:48:51.734Z,20.4
2023-04-03T21:50:51.666Z,20.3
2023-04-03T21:52:51.615Z,20.1
2023-04-03T21:54:51.628Z,20.1
2023-04-03T21:56:51.864Z,20.1
2023-04-03T21:58:51.764Z,20.4
2023-04-03T22:00:51.630Z,20.5
2023-04-03T22:03:00.523Z,20.2
2023-04-03T22:04:51.719Z,20.4
2023-04-03T22:06:51.676Z,20.5
2023-04-03T22:08:59.405Z,20.5
2023-04-03T22:10:53.073Z,20.5
2023-04-03T22:12:51.661Z,20.5
2023-04-03T22:14:51.653Z,20.4
2023-04-03T22:16:51.709Z,20.5
2023-04-03T22:18:51.886Z,20.5
2023-04-03T22:20:51.658Z,20.4
2023-04-03T22:22:51.758Z,20.5
2023-04-03T22:24:51.645Z,20.5
2023-04-03T22:26:51.657Z,20.5
2023-04-03T22:28:51.662Z,20.8
2023-04-03T22:30:54.308Z,21.0
2023-04-03T22:32:51.803Z,21.2
2023-04-03T22:34:51.698Z,21.0
2023-04-03T22:36:51.755Z,20.8
2023-04-03T22:38:51.660Z,21.0
2023-04-03T22:40:51.972Z,21.0
2023-04-03T22:42:51.663Z,20.8
2023-04-03T22:44:51.738Z,21.0
2023-04-03T22:46:51.700Z,20.8
2023-04-03T22:48:51.730Z,20.7
2023-04-03T22:51:51.742Z,21.0
2023-04-03T22:53:51.783Z,21.2
2023-04-03T22:55:52.034Z,21.5
2023-04-03T22:57:51.752Z,21.5
2023-04-03T22:59:51.727Z,21.1
2023-04-03T23:01:51.698Z,21.2
2023-04-03T23:03:51.880Z,21.1
2023-04-03T23:05:52.045Z,20.9
2023-04-03T23:07:51.761Z,20.7
2023-04-03T23:09:52.320Z,20.8
2023-04-03T23:11:51.686Z,20.9
2023-04-03T23:13:51.682Z,20.9
2023-04-03T23:15:51.826Z,20.9
2023-04-03T23:17:51.841Z,20.7
2023-04-03T23:21:51.858Z,21.0
2023-04-03T23:25:15.543Z,20.7
2023-04-03T23:27:15.473Z,20.7
2023-04-03T23:29:15.597Z,20.5
2023-04-03T23:31:15.536Z,20.1
2023-04-03T23:33:15.516Z,20.0
2023-04-03T23:35:15.632Z,19.9
2023-04-03T23:37:16.018Z,19.8
2023-04-03T23:39:15.665Z,19.7
2023-04-03T23:41:15.548Z,19.6
2023-04-03T23:43:16.548Z,19.7
2023-04-03T23:45:18.470Z,19.7
2023-04-03T23:47:15.638Z,19.5
2023-04-03T23:49:15.520Z,19.6
2023-04-03T23:51:18.725Z,19.3
2023-04-03T23:53:15.500Z,19.5
2023-04-03T23:55:15.613Z,19.5
2023-04-03T23:57:15.661Z,19.3
2023-04-03T23:59:15.858Z,19.0
